Disclaimer

Please do not use the information listed here in-flight or in-navigation, as they are not provided to us by the airports but are provided by volunteers, so they might be outdated.

Search


Regions


Airport information page

No radio frequency information is available.

Airport informations:
Latitude: 68° 46' 54.02" N
Longitude: 032° 45' 02.96" E
Elevation: 266 feet - 81 meters
Operating hours: Remarks
Operating agency: Civil government, landing fees and diplomatic clearance may be required
Timezone: UTC+3(+4DT) - Last Sunday in March to last Sunday in October
Fuel: N/A

Runway information:
14/32 - 8202 x 148 feet< - >2500 x 45 meters

Recent METARs:
ULMM 190000Z 28002MPS 240V330 CAVOK M01/M06 Q1033 R31/110065 NOSIG RMK QFE768
ULMM 190030Z 27003MPS 220V310 CAVOK M01/M06 Q1033 R31/110065 NOSIG RMK QFE767
ULMM 190100Z 26002MPS CAVOK M01/M06 Q1033 R31/110065 NOSIG RMK QFE767

Airport on the map: